Time;durP1;ratioP1;P1;durP2;ratioP2;P2;SDS_P1;SDS_P2;PMS_P1;PMS_P2;Temp;Humidity;BMP_temperature;BMP_pressure;BME280_temperature;BME280_humidity;BME280_pressure;Samples;Min_cycle;Max_cycle;Signal;HPM_P1;HPM_P2
2022/07/25 00:01:02;;;;;;;;;13.00;12.00;;;;;28.76;37.57;100561.31;4954734;28;45560;-64
2022/07/25 00:03:28;;;;;;;;;12.00;12.00;;;;;28.74;37.73;100549.50;4953831;28;45078;-66
2022/07/25 00:05:53;;;;;;;;;15.67;14.67;;;;;28.57;38.05;100520.16;4955327;28;45179;-64
2022/07/25 00:08:18;;;;;;;;;14.00;13.67;;;;;28.68;37.70;100547.97;4953665;28;44984;-62
2022/07/25 00:10:44;;;;;;;;;15.00;15.00;;;;;28.66;38.00;100538.94;4954353;28;50317;-61
2022/07/25 00:13:09;;;;;;;;;12.67;11.67;;;;;28.66;37.88;100533.44;4954635;28;45112;-61
2022/07/25 00:15:34;;;;;;;;;12.33;12.33;;;;;28.47;38.36;100497.72;4955481;28;45155;-62
2022/07/25 00:18:00;;;;;;;;;12.00;12.00;;;;;28.15;38.49;100452.69;4955442;28;45150;-62
2022/07/25 00:20:26;;;;;;;;;12.00;10.67;;;;;28.60;38.01;100534.63;4950067;28;49863;-65
2022/07/25 00:22:51;;;;;;;;;14.67;12.00;;;;;28.56;38.39;100526.56;4965410;28;45104;-62
2022/07/25 00:25:16;;;;;;;;;13.00;12.00;;;;;28.38;38.14;100487.19;4955425;28;45115;-62
2022/07/25 00:27:42;;;;;;;;;12.33;11.00;;;;;28.54;38.59;100515.66;4955080;28;44996;-64
2022/07/25 00:30:08;;;;;;;;;12.33;12.00;;;;;28.55;38.04;100516.56;4952752;28;45852;-61
2022/07/25 00:32:33;;;;;;;;;12.33;11.00;;;;;28.38;38.52;100490.88;4955012;28;45019;-62
2022/07/25 00:34:58;;;;;;;;;12.33;11.33;;;;;28.50;38.76;100516.81;4954386;28;45178;-64
2022/07/25 00:37:24;;;;;;;;;13.33;11.67;;;;;28.50;38.72;100525.06;4953809;28;45573;-64
2022/07/25 00:39:49;;;;;;;;;12.00;12.00;;;;;28.49;38.43;100518.69;4952581;28;45945;-64
2022/07/25 00:42:14;;;;;;;;;13.33;12.00;;;;;28.49;38.83;100515.00;4937343;28;44998;-60
2022/07/25 00:44:40;;;;;;;;;15.00;14.00;;;;;28.40;38.59;100491.66;4954771;28;45095;-62
2022/07/25 00:47:05;;;;;;;;;14.67;13.00;;;;;28.42;38.99;100497.97;4954892;28;45048;-65
2022/07/25 00:49:30;;;;;;;;;13.00;13.00;;;;;28.44;39.09;100496.00;4953926;28;45687;-64
2022/07/25 00:51:57;;;;;;;;;12.00;11.33;;;;;28.45;39.12;100502.41;4936864;28;44919;-62
2022/07/25 00:54:22;;;;;;;;;13.67;12.00;;;;;28.45;38.62;100503.31;4954408;28;45015;-65
2022/07/25 00:56:49;;;;;;;;;12.00;12.00;;;;;28.39;38.71;100492.63;4955105;28;45261;-64
2022/07/25 00:59:16;;;;;;;;;15.33;11.00;;;;;28.18;38.65;100458.94;4945564;28;45857;-61
2022/07/25 01:01:41;;;;;;;;;10.33;10.00;;;;;28.43;39.32;100494.25;4941670;28;46849;-62
2022/07/25 01:04:07;;;;;;;;;15.67;12.67;;;;;28.28;38.75;100475.84;4935738;28;45057;-66
2022/07/25 01:06:33;;;;;;;;;10.00;10.00;;;;;28.41;39.18;100503.53;4935199;28;45058;-66
2022/07/25 01:09:00;;;;;;;;;12.67;12.67;;;;;28.27;38.65;100483.16;4942150;28;45244;-63
2022/07/25 01:11:26;;;;;;;;;12.33;12.33;;;;;28.36;39.19;100527.63;4944389;28;45447;-65
2022/07/25 01:13:51;;;;;;;;;11.00;11.00;;;;;28.28;39.43;100537.16;4933657;28;45137;-63
2022/07/25 01:16:17;;;;;;;;;11.33;10.33;;;;;28.14;39.72;100517.72;4938526;28;45016;-67
2022/07/25 01:18:43;;;;;;;;;14.00;11.67;;;;;27.96;39.57;100494.81;4947678;28;45096;-64
2022/07/25 01:21:08;;;;;;;;;18.00;12.33;;;;;28.13;39.75;100529.66;4935147;28;45114;-61
2022/07/25 01:23:33;;;;;;;;;13.67;11.00;;;;;27.90;40.15;100496.00;4935045;28;45043;-66
2022/07/25 01:25:59;;;;;;;;;12.67;12.00;;;;;28.01;40.15;100524.81;4938375;28;44933;-64
2022/07/25 01:28:24;;;;;;;;;13.33;12.00;;;;;27.91;40.09;100516.09;4938131;28;44960;-65
2022/07/25 01:30:49;;;;;;;;;14.00;13.00;;;;;27.94;39.98;100518.72;4933507;28;45015;-61
2022/07/25 01:33:17;;;;;;;;;13.67;13.67;;;;;27.87;40.15;100518.13;4934758;28;45022;-66
2022/07/25 01:35:43;;;;;;;;;10.33;10.33;;;;;27.79;40.26;100525.84;4934957;28;45409;-61
2022/07/25 01:38:08;;;;;;;;;14.67;13.33;;;;;27.82;40.64;100519.28;4952268;28;45883;-62
2022/07/25 01:40:33;;;;;;;;;13.33;12.00;;;;;27.81;40.58;100520.28;4933065;28;45604;-62
2022/07/25 01:42:59;;;;;;;;;10.33;9.33;;;;;27.81;40.36;100526.66;4942691;28;45186;-67
2022/07/25 01:45:24;;;;;;;;;13.00;11.67;;;;;27.79;40.47;100519.47;4934999;28;45230;-65
2022/07/25 01:47:49;;;;;;;;;11.33;10.00;;;;;27.70;40.70;100505.22;4944454;28;45840;-61
2022/07/25 01:50:15;;;;;;;;;14.33;10.00;;;;;27.72;40.46;100508.78;4933285;28;45291;-68
2022/07/25 01:52:41;;;;;;;;;12.67;12.67;;;;;27.75;40.62;100513.22;4937801;28;45486;-68
2022/07/25 01:55:07;;;;;;;;;11.67;11.00;;;;;27.54;40.27;100482.25;4954190;28;44963;-68
2022/07/25 01:57:32;;;;;;;;;13.00;13.00;;;;;27.61;40.22;100483.69;4950887;28;45480;-67
2022/07/25 01:59:58;;;;;;;;;9.67;9.33;;;;;27.72;40.63;100511.53;4953384;28;45300;-66
2022/07/25 02:02:24;;;;;;;;;10.00;10.00;;;;;27.71;40.14;100511.59;4952677;28;45147;-70
2022/07/25 02:04:49;;;;;;;;;10.67;10.67;;;;;27.66;40.66;100508.19;4953615;28;44916;-70
2022/07/25 02:07:14;;;;;;;;;13.00;10.00;;;;;27.29;40.35;100445.00;4952484;28;53996;-68
2022/07/25 02:09:40;;;;;;;;;14.00;12.33;;;;;27.66;40.50;100510.94;4953493;28;45110;-63
2022/07/25 02:12:06;;;;;;;;;11.33;10.00;;;;;27.50;40.36;100480.59;4951045;28;45106;-70
2022/07/25 02:14:32;;;;;;;;;12.33;10.33;;;;;27.60;40.57;100512.09;4932241;28;45253;-70
2022/07/25 02:16:57;;;;;;;;;9.00;9.00;;;;;27.54;40.88;100509.69;4941453;28;46022;-60
2022/07/25 02:19:23;;;;;;;;;8.00;8.00;;;;;27.35;41.00;100491.31;4940163;28;45318;-62
2022/07/25 02:21:48;;;;;;;;;10.00;10.00;;;;;27.43;40.92;100501.94;4933394;28;45453;-62
2022/07/25 02:24:13;;;;;;;;;10.00;9.00;;;;;27.29;41.31;100487.94;4941450;28;45358;-62
2022/07/25 02:26:39;;;;;;;;;9.67;8.00;;;;;27.19;41.24;100479.28;4937503;28;46489;-62
2022/07/25 02:29:04;;;;;;;;;9.33;8.67;;;;;27.35;40.62;100504.16;4943466;28;45085;-66
2022/07/25 02:31:29;;;;;;;;;7.00;5.67;;;;;27.28;40.87;100509.03;4932768;28;45062;-63
2022/07/25 02:33:55;;;;;;;;;9.00;9.00;;;;;27.13;40.93;100491.44;4933190;28;45194;-67
2022/07/25 02:36:20;;;;;;;;;7.67;7.00;;;;;27.11;40.80;100500.69;4939521;28;45962;-66
2022/07/25 02:38:45;;;;;;;;;5.67;5.67;;;;;27.11;40.91;100512.56;4939574;28;45139;-66
2022/07/25 02:41:11;;;;;;;;;5.67;5.67;;;;;26.97;41.26;100510.44;4937777;28;44994;-66
2022/07/25 02:43:36;;;;;;;;;7.00;6.33;;;;;26.88;41.29;100516.34;4953020;28;44932;-61
2022/07/25 02:46:02;;;;;;;;;7.00;6.00;;;;;26.79;41.16;100500.31;4933065;28;46321;-63
2022/07/25 02:48:27;;;;;;;;;6.00;6.00;;;;;26.77;41.28;100513.19;4937552;28;44914;-68
2022/07/25 02:50:53;;;;;;;;;8.00;8.00;;;;;26.71;41.49;100513.47;4932125;28;45553;-68
2022/07/25 02:53:18;;;;;;;;;7.33;6.00;;;;;26.60;41.71;100514.81;4936388;28;45155;-68
2022/07/25 02:55:43;;;;;;;;;7.00;7.00;;;;;26.54;41.71;100515.06;4941826;28;45186;-66
2022/07/25 02:58:09;;;;;;;;;5.33;4.33;;;;;26.48;41.52;100526.28;4952079;28;45287;-64
2022/07/25 03:00:34;;;;;;;;;4.33;4.33;;;;;26.46;41.56;100522.72;4935085;28;45025;-66
2022/07/25 03:03:00;;;;;;;;;6.00;6.00;;;;;26.38;41.51;100524.91;4931793;28;45358;-62
2022/07/25 03:05:25;;;;;;;;;6.33;5.00;;;;;26.19;41.45;100495.56;4936007;28;45605;-69
2022/07/25 03:07:51;;;;;;;;;5.00;5.00;;;;;26.23;41.08;100496.34;4943465;28;45250;-66
2022/07/25 03:10:16;;;;;;;;;23.33;19.00;;;;;26.27;41.34;100525.38;4942722;28;45008;-67
2022/07/25 03:12:42;;;;;;;;;5.33;5.33;;;;;26.19;41.38;100512.00;4937408;28;45304;-60
2022/07/25 03:15:09;;;;;;;;;4.00;4.00;;;;;26.19;41.41;100516.59;4943853;28;45679;-66
2022/07/25 03:17:34;;;;;;;;;5.00;4.00;;;;;26.11;41.33;100528.75;4951470;28;45274;-67
2022/07/25 03:20:00;;;;;;;;;6.33;5.33;;;;;26.05;41.40;100525.38;4939995;28;45270;-66
2022/07/25 03:22:25;;;;;;;;;7.67;5.00;;;;;26.05;41.43;100529.03;4948228;28;44950;-62
2022/07/25 03:24:52;;;;;;;;;4.33;4.00;;;;;26.03;41.56;100530.91;4950644;28;45319;-64
2022/07/25 03:27:18;;;;;;;;;4.00;4.00;;;;;26.03;41.08;100536.38;4950255;28;45153;-65
2022/07/25 03:29:44;;;;;;;;;6.33;5.33;;;;;25.90;41.59;100525.03;4942352;28;45008;-66
2022/07/25 03:32:09;;;;;;;;;4.00;3.67;;;;;25.98;41.17;100541.16;4944701;28;45199;-61
2022/07/25 03:34:35;;;;;;;;;3.67;3.67;;;;;25.97;41.06;100538.50;4944749;28;45167;-66
2022/07/25 03:37:01;;;;;;;;;4.67;4.67;;;;;25.78;40.86;100514.59;4948815;28;45075;-63
2022/07/25 03:39:27;;;;;;;;;5.00;5.00;;;;;25.95;40.54;100546.72;4936632;28;45004;-67
2022/07/25 03:41:53;;;;;;;;;4.33;4.00;;;;;25.95;40.20;100552.19;4936687;28;45079;-64
2022/07/25 03:44:19;;;;;;;;;4.67;3.33;;;;;25.96;39.98;100561.38;4935989;28;45245;-60
2022/07/25 03:46:44;;;;;;;;;5.67;3.33;;;;;25.89;39.95;100558.84;4939518;28;45474;-63
2022/07/25 03:49:10;;;;;;;;;5.00;3.33;;;;;25.83;39.93;100563.66;4936410;28;45128;-64
2022/07/25 03:51:35;;;;;;;;;5.00;5.00;;;;;25.61;39.67;100539.00;4941615;28;45004;-63
2022/07/25 03:54:00;;;;;;;;;7.00;6.00;;;;;25.71;39.64;100571.41;4935450;28;46356;-67
2022/07/25 03:56:30;;;;;;;;;3.00;3.00;;;;;25.47;39.64;100536.78;4946275;28;48242;-61
2022/07/25 03:58:55;;;;;;;;;5.33;2.67;;;;;25.52;39.08;100559.38;4938877;28;45193;-69
2022/07/25 04:01:21;;;;;;;;;3.00;3.00;;;;;25.47;39.27;100561.41;4941406;28;45401;-65
2022/07/25 04:03:46;;;;;;;;;2.00;2.00;;;;;25.52;39.31;100579.44;4938851;28;45188;-65
2022/07/25 04:06:12;;;;;;;;;5.00;3.33;;;;;25.38;39.10;100581.81;4942133;28;45115;-66
2022/07/25 04:08:37;;;;;;;;;3.33;3.33;;;;;25.33;39.89;100575.63;4943710;28;44942;-64
2022/07/25 04:11:02;;;;;;;;;3.67;3.67;;;;;25.40;39.19;100584.50;4936327;28;45017;-61
2022/07/25 04:13:28;;;;;;;;;2.00;2.00;;;;;25.40;39.62;100585.38;4934867;28;45626;-66
2022/07/25 04:15:54;;;;;;;;;2.00;2.00;;;;;25.31;39.89;100567.47;4942101;28;45525;-66
2022/07/25 04:18:19;;;;;;;;;4.33;2.33;;;;;25.30;39.84;100557.47;4950206;28;45094;-65
2022/07/25 04:20:44;;;;;;;;;2.67;2.67;;;;;25.34;39.96;100578.31;4954069;28;44937;-70
2022/07/25 04:23:10;;;;;;;;;3.33;2.00;;;;;25.15;39.58;100550.72;4953246;28;45826;-67
2022/07/25 04:25:36;;;;;;;;;2.00;2.00;;;;;25.23;40.38;100590.53;4951469;28;45108;-64
2022/07/25 04:28:01;;;;;;;;;3.00;2.00;;;;;25.22;40.57;100596.97;4944043;28;46099;-65
2022/07/25 04:30:27;;;;;;;;;1.67;1.67;;;;;24.97;41.19;100552.28;4940413;28;45376;-64
2022/07/25 04:32:52;;;;;;;;;1.00;1.00;;;;;25.09;40.73;100575.53;4940360;28;45240;-65
2022/07/25 04:35:17;;;;;;;;;5.00;3.33;;;;;25.17;41.32;100595.28;4934689;28;45187;-71
2022/07/25 04:37:43;;;;;;;;;3.67;2.33;;;;;24.96;41.21;100563.28;4940379;28;45124;-68
2022/07/25 04:40:10;;;;;;;;;2.00;2.00;;;;;24.94;41.67;100578.84;4936520;28;44971;-62
2022/07/25 04:42:35;;;;;;;;;5.00;3.00;;;;;25.09;41.62;100604.72;4932848;28;45532;-66
2022/07/25 04:45:00;;;;;;;;;3.00;2.00;;;;;25.08;41.78;100608.41;4928570;28;45511;-68
2022/07/25 04:47:26;;;;;;;;;1.33;1.33;;;;;25.09;41.84;100611.06;4931901;28;45191;-64
2022/07/25 04:49:51;;;;;;;;;2.00;1.00;;;;;25.08;42.15;100614.78;4938824;28;44997;-62
2022/07/25 04:52:16;;;;;;;;;1.67;1.67;;;;;25.10;42.36;100612.00;4933809;28;45432;-67
2022/07/25 04:54:42;;;;;;;;;8.00;6.67;;;;;24.89;42.58;100591.78;4938411;28;45206;-63
2022/07/25 04:57:07;;;;;;;;;2.00;2.00;;;;;24.90;43.56;100608.13;4934201;28;45024;-65
2022/07/25 04:59:32;;;;;;;;;2.33;1.00;;;;;24.86;43.47;100613.75;4934616;28;45245;-67
2022/07/25 05:01:58;;;;;;;;;2.00;2.00;;;;;24.62;44.07;100586.34;4895882;28;1098286;-63
2022/07/25 05:04:23;;;;;;;;;3.00;2.00;;;;;24.71;44.07;100610.59;4939199;28;45130;-62
2022/07/25 05:06:48;;;;;;;;;2.00;1.00;;;;;24.36;44.51;100548.97;4935407;28;45227;-65
2022/07/25 05:09:14;;;;;;;;;2.00;2.00;;;;;24.75;44.49;100619.56;4935245;28;45088;-63
2022/07/25 05:11:39;;;;;;;;;3.00;2.00;;;;;24.64;45.02;100611.75;4934912;28;45071;-63
2022/07/25 05:14:04;;;;;;;;;2.00;2.00;;;;;24.65;44.47;100614.44;4941749;28;45138;-68
2022/07/25 05:16:30;;;;;;;;;6.00;2.00;;;;;24.58;45.02;100601.94;4937640;28;45281;-64
2022/07/25 05:18:55;;;;;;;;;5.00;2.33;;;;;24.75;45.22;100625.03;4946367;28;45047;-60
2022/07/25 05:21:21;;;;;;;;;6.00;6.00;;;;;24.71;45.06;100602.41;4937430;28;45680;-66
2022/07/25 05:23:46;;;;;;;;;1.00;1.00;;;;;24.82;45.05;100624.78;4952041;28;45140;-62
2022/07/25 05:26:11;;;;;;;;;1.67;1.00;;;;;24.82;45.34;100635.72;4952700;28;45153;-66
2022/07/25 05:28:37;;;;;;;;;4.00;2.00;;;;;24.29;45.17;100554.63;4945140;28;45163;-64
2022/07/25 05:31:02;;;;;;;;;3.00;2.00;;;;;24.72;45.49;100625.16;4946669;28;45891;-67
2022/07/25 05:33:28;;;;;;;;;3.33;1.00;;;;;24.77;45.32;100645.91;4940730;28;45088;-63
2022/07/25 05:35:53;;;;;;;;;2.00;2.00;;;;;24.77;45.53;100639.56;4950660;28;45077;-63
2022/07/25 05:38:19;;;;;;;;;4.00;2.00;;;;;24.59;45.68;100611.91;4936211;28;45005;-62
2022/07/25 05:40:44;;;;;;;;;1.00;1.00;;;;;24.79;45.72;100643.13;4922694;28;45868;-64
2022/07/25 05:43:10;;;;;;;;;3.00;3.00;;;;;24.81;45.51;100650.34;4952143;28;44898;-66
2022/07/25 05:45:35;;;;;;;;;0.00;0.00;;;;;24.75;45.40;100647.81;4934210;28;45090;-63
2022/07/25 05:48:01;;;;;;;;;3.00;3.00;;;;;24.65;45.85;100632.69;4935250;28;45086;-61
2022/07/25 05:50:26;;;;;;;;;2.33;1.00;;;;;24.72;45.60;100644.28;4937328;28;49995;-62
2022/07/25 05:52:51;;;;;;;;;2.00;2.00;;;;;24.57;45.70;100621.13;4948731;28;45169;-62
2022/07/25 05:55:17;;;;;;;;;2.33;2.00;;;;;24.64;45.95;100650.88;4939109;28;45281;-61
2022/07/25 05:57:42;;;;;;;;;1.67;1.67;;;;;24.75;45.83;100658.75;4943664;28;45520;-64
2022/07/25 06:00:08;;;;;;;;;1.33;1.00;;;;;24.55;45.94;100629.38;4933947;28;48022;-61
2022/07/25 06:02:33;;;;;;;;;3.67;3.67;;;;;24.65;45.90;100647.22;4926373;28;45536;-60
2022/07/25 06:04:59;;;;;;;;;4.67;2.67;;;;;24.68;46.01;100659.00;4928991;28;45389;-59
2022/07/25 06:07:24;;;;;;;;;1.00;1.00;;;;;24.56;45.78;100646.63;4925012;28;45538;-62
2022/07/25 06:09:50;;;;;;;;;1.33;1.33;;;;;24.50;45.96;100638.59;4924034;28;45698;-64
2022/07/25 06:12:15;;;;;;;;;1.67;1.67;;;;;24.63;46.39;100668.25;4920614;28;45504;-66
2022/07/25 06:14:41;;;;;;;;;3.33;3.00;;;;;24.51;46.09;100646.75;4916430;28;45637;-63
2022/07/25 06:17:06;;;;;;;;;4.33;3.33;;;;;24.59;46.50;100652.88;4925581;28;45232;-62
2022/07/25 06:19:31;;;;;;;;;4.00;2.33;;;;;24.69;46.17;100675.34;4925151;28;46157;-64
2022/07/25 06:21:57;;;;;;;;;3.00;1.00;;;;;24.70;46.09;100674.41;4928473;28;45596;-64
2022/07/25 06:24:22;;;;;;;;;4.00;2.00;;;;;24.75;45.77;100685.16;4930694;28;46190;-62
2022/07/25 06:26:47;;;;;;;;;7.67;2.00;;;;;24.68;46.35;100670.81;4941528;28;47083;-65
2022/07/25 06:29:13;;;;;;;;;2.00;2.00;;;;;24.68;45.82;100659.88;4930271;28;46103;-65
2022/07/25 06:31:38;;;;;;;;;3.33;3.33;;;;;24.64;45.66;100653.63;4931261;28;45259;-64
2022/07/25 06:34:03;;;;;;;;;2.00;2.00;;;;;24.82;45.91;100692.22;4930957;28;45097;-62
2022/07/25 06:36:29;;;;;;;;;3.00;3.00;;;;;24.84;46.02;100693.94;4924042;28;45207;-61
2022/07/25 06:38:54;;;;;;;;;4.00;3.00;;;;;24.83;45.47;100697.63;4914839;28;45367;-66
2022/07/25 06:41:19;;;;;;;;;4.67;4.67;;;;;24.88;46.14;100702.94;4928007;28;45201;-64
2022/07/25 06:43:45;;;;;;;;;6.00;4.33;;;;;24.87;45.71;100695.69;4925080;28;45469;-63
2022/07/25 06:46:10;;;;;;;;;6.00;5.00;;;;;24.93;46.05;100691.84;4929952;28;45569;-62
2022/07/25 06:48:35;;;;;;;;;6.00;4.00;;;;;24.95;45.88;100709.09;4930177;28;45567;-66
2022/07/25 06:51:01;;;;;;;;;3.00;3.00;;;;;24.90;46.28;100692.84;4930899;28;45100;-62
2022/07/25 06:53:27;;;;;;;;;3.00;3.00;;;;;24.92;46.16;100692.78;4927761;28;45284;-67
2022/07/25 06:55:52;;;;;;;;;1.00;1.00;;;;;25.00;46.68;100697.03;4927912;28;45455;-63
2022/07/25 06:58:18;;;;;;;;;3.00;3.00;;;;;25.07;46.18;100716.84;4931451;28;45529;-65
2022/07/25 07:00:43;;;;;;;;;14.00;12.67;;;;;25.14;46.57;100712.06;4929020;28;45351;-62
2022/07/25 07:03:09;;;;;;;;;3.67;3.00;;;;;25.08;45.94;100693.13;4914845;28;45474;-65
2022/07/25 07:05:38;;;;;;;;;1.67;1.67;;;;;24.98;46.09;100685.28;4915233;28;45408;-69
2022/07/25 07:08:03;;;;;;;;;10.67;6.33;;;;;25.12;45.97;100703.91;4915735;28;46376;-62
2022/07/25 07:10:29;;;;;;;;;2.33;1.00;;;;;25.18;46.31;100719.25;4915697;28;45567;-67
2022/07/25 07:13:12;;;;;;;;;5.33;5.33;;;;;25.25;46.38;100734.47;4916022;28;45562;-68
2022/07/25 07:15:42;;;;;;;;;2.00;2.00;;;;;25.20;46.67;100726.41;4915930;28;45350;-65
2022/07/25 07:18:08;;;;;;;;;4.00;2.00;;;;;25.21;46.32;100735.53;4928916;28;45398;-66
2022/07/25 07:20:34;;;;;;;;;4.00;3.00;;;;;25.31;45.88;100726.09;4915410;28;45359;-65
2022/07/25 07:22:59;;;;;;;;;5.00;5.00;;;;;25.33;46.30;100709.63;4915988;28;45510;-68
2022/07/25 07:25:25;;;;;;;;;3.67;3.67;;;;;25.48;45.90;100725.47;4915428;28;45341;-64
2022/07/25 07:27:50;;;;;;;;;3.33;3.33;;;;;25.11;46.14;100663.88;4898237;28;46249;-69
2022/07/25 07:30:16;;;;;;;;;2.00;2.00;;;;;25.54;45.66;100733.47;4915192;28;45372;-64
2022/07/25 07:32:42;;;;;;;;;5.67;3.00;;;;;25.32;45.25;100691.44;4915568;28;45475;-65
2022/07/25 07:35:08;;;;;;;;;6.00;6.00;;;;;25.12;45.78;100657.44;4915631;28;45523;-66
2022/07/25 07:37:33;;;;;;;;;4.00;4.00;;;;;25.55;45.72;100734.38;4915309;28;46017;-60
2022/07/25 07:39:59;;;;;;;;;9.67;8.33;;;;;25.58;45.65;100726.03;4915478;28;45292;-68
2022/07/25 07:42:24;;;;;;;;;7.00;7.00;;;;;25.71;45.41;100729.25;4915056;28;45347;-65
2022/07/25 07:44:49;;;;;;;;;3.67;3.67;;;;;25.91;45.05;100740.31;4915573;28;45663;-62
2022/07/25 07:47:15;;;;;;;;;10.33;7.67;;;;;25.85;44.85;100712.28;4914898;28;46105;-62
2022/07/25 07:49:40;;;;;;;;;6.33;4.67;;;;;25.94;44.85;100726.53;4915160;28;45314;-60
2022/07/25 07:52:05;;;;;;;;;4.00;3.00;;;;;26.13;45.27;100738.66;4918624;28;45275;-62
2022/07/25 07:57:15;;;;;;;;;2.33;1.00;;;;;25.97;45.32;100752.03;4918057;28;45465;-68
2022/07/25 07:59:40;;;;;;;;;2.00;2.00;;;;;25.83;45.49;100739.72;4918101;28;47574;-65
2022/07/25 08:02:05;;;;;;;;;2.00;2.00;;;;;25.96;45.26;100753.88;4918091;28;45453;-61
2022/07/25 08:04:31;;;;;;;;;7.33;5.33;;;;;26.03;45.45;100760.00;4918718;28;45455;-62
2022/07/25 08:06:56;;;;;;;;;4.67;3.00;;;;;26.09;45.30;100735.16;4918135;28;45332;-64
2022/07/25 08:09:24;;;;;;;;;8.00;6.33;;;;;26.35;45.14;100757.88;4918090;28;45615;-61
2022/07/25 08:11:50;;;;;;;;;5.33;5.33;;;;;26.43;44.80;100762.13;4918662;28;45284;-61
2022/07/25 08:14:15;;;;;;;;;7.00;5.67;;;;;26.46;44.85;100761.09;4918633;28;45409;-61
2022/07/25 08:16:40;;;;;;;;;2.33;2.33;;;;;26.40;44.42;100751.28;4921549;28;45666;-67
2022/07/25 08:19:06;;;;;;;;;4.33;2.00;;;;;26.43;44.62;100751.16;4928029;28;45422;-62
2022/07/25 08:21:31;;;;;;;;;1.00;1.00;;;;;26.52;44.39;100771.81;4917815;28;45494;-63
2022/07/25 08:23:56;;;;;;;;;1.00;1.00;;;;;26.49;44.58;100767.31;4918336;28;45374;-69
2022/07/25 08:26:22;;;;;;;;;4.00;2.00;;;;;26.54;44.09;100772.63;4918122;28;45793;-62
2022/07/25 08:28:47;;;;;;;;;2.00;2.00;;;;;26.36;44.36;100738.63;4917561;28;45367;-66
2022/07/25 08:31:12;;;;;;;;;3.33;3.33;;;;;26.45;44.49;100757.47;4911720;28;45581;-67
2022/07/25 08:33:38;;;;;;;;;2.00;2.00;;;;;26.34;44.35;100743.28;4920872;28;45403;-62
2022/07/25 08:36:03;;;;;;;;;2.00;2.00;;;;;26.51;44.35;100752.69;4917558;28;45515;-67
2022/07/25 08:38:29;;;;;;;;;1.67;1.67;;;;;26.56;44.34;100761.59;4917622;28;45499;-70
2022/07/25 08:40:56;;;;;;;;;2.00;2.00;;;;;26.43;44.40;100736.53;4917769;28;45515;-65
2022/07/25 08:43:22;;;;;;;;;2.33;1.67;;;;;26.57;43.97;100742.38;4917204;28;45474;-63
2022/07/25 08:45:49;;;;;;;;;2.00;2.00;;;;;26.79;43.83;100771.69;4917643;28;45376;-70
2022/07/25 08:48:24;;;;;;;;;1.33;1.33;;;;;26.89;43.38;100767.59;4925617;28;45395;-72
2022/07/25 08:50:50;;;;;;;;;6.00;1.00;;;;;26.91;43.17;100771.19;4917399;28;45587;-63
2022/07/25 08:53:18;;;;;;;;;1.00;1.00;;;;;27.02;43.26;100773.47;4917509;28;45386;-65
2022/07/25 08:55:44;;;;;;;;;2.00;2.00;;;;;27.07;43.51;100776.91;4913452;28;48319;-66
2022/07/25 08:58:11;;;;;;;;;2.00;2.00;;;;;27.10;43.17;100770.41;4917305;28;45288;-62
2022/07/25 09:00:37;;;;;;;;;4.33;3.00;;;;;27.17;43.28;100767.34;4917521;28;45692;-71
2022/07/25 09:03:07;;;;;;;;;3.67;3.67;;;;;27.23;43.02;100774.41;4916482;28;45389;-68
2022/07/25 09:05:34;;;;;;;;;4.00;2.00;;;;;27.27;42.56;100781.53;4917120;28;45525;-69
2022/07/25 09:08:10;;;;;;;;;2.00;2.00;;;;;27.34;42.71;100787.69;4917361;28;45679;-66
2022/07/25 09:10:38;;;;;;;;;1.00;1.00;;;;;27.30;42.75;100783.31;4900176;28;45532;-68
2022/07/25 09:13:12;;;;;;;;;6.00;4.00;;;;;27.21;42.65;100781.81;4917381;28;45450;-63
2022/07/25 09:15:41;;;;;;;;;2.33;2.33;;;;;27.19;43.01;100794.69;4917375;28;47068;-65
2022/07/25 09:18:09;;;;;;;;;7.00;3.00;;;;;27.05;43.33;100786.19;4930581;28;45366;-70
2022/07/25 09:20:44;;;;;;;;;1.00;1.00;;;;;26.95;43.42;100797.50;4916967;28;45469;-67
2022/07/25 09:23:11;;;;;;;;;4.00;2.33;;;;;26.91;43.69;100793.13;4917206;28;45327;-66
2022/07/25 09:25:38;;;;;;;;;3.00;2.00;;;;;26.98;43.59;100804.72;4917299;28;46212;-71
2022/07/25 09:28:13;;;;;;;;;3.00;2.00;;;;;27.09;43.34;100807.00;4916961;28;45490;-64
2022/07/25 09:30:40;;;;;;;;;3.33;1.00;;;;;27.09;43.13;100801.53;4916901;28;45359;-71
2022/07/25 09:33:06;;;;;;;;;2.33;2.00;;;;;27.09;42.81;100788.72;4917436;28;45367;-66
2022/07/25 09:35:39;;;;;;;;;3.33;3.33;;;;;27.24;42.58;100800.91;4916446;28;46201;-70
2022/07/25 09:38:12;;;;;;;;;2.67;1.33;;;;;27.25;42.67;100793.56;4916948;28;45402;-68
2022/07/25 09:40:38;;;;;;;;;2.00;2.00;;;;;27.36;42.51;100822.34;4917392;28;45498;-70
2022/07/25 09:43:04;;;;;;;;;2.00;1.67;;;;;27.34;42.20;100821.53;4917389;28;45520;-70
2022/07/25 09:45:29;;;;;;;;;2.33;2.33;;;;;27.25;42.44;100819.13;4916900;28;46022;-68
2022/07/25 09:47:58;;;;;;;;;3.67;2.00;;;;;27.25;42.49;100829.22;4916961;28;45311;-68
2022/07/25 09:50:25;;;;;;;;;2.33;2.33;;;;;27.25;42.56;100816.38;4917255;28;45426;-65
2022/07/25 09:52:53;;;;;;;;;2.00;2.00;;;;;27.34;42.16;100815.13;4917358;28;45296;-69
2022/07/25 09:55:20;;;;;;;;;3.67;3.67;;;;;27.33;42.05;100796.91;4916263;28;45379;-68
2022/07/25 09:57:48;;;;;;;;;3.00;3.00;;;;;27.57;41.81;100819.66;4905243;28;45554;-67
2022/07/25 10:00:17;;;;;;;;;4.00;4.00;;;;;27.71;42.06;100824.53;4925025;28;45469;-70
2022/07/25 10:02:53;;;;;;;;;3.33;1.67;;;;;27.76;41.75;100834.34;4918182;28;45695;-68
2022/07/25 10:05:43;;;;;;;;;2.33;2.00;;;;;27.74;41.43;100829.88;4916867;28;46194;-69
2022/07/25 10:08:10;;;;;;;;;5.00;3.00;;;;;27.72;41.68;100821.72;4916723;28;45491;-70
2022/07/25 10:10:44;;;;;;;;;5.00;4.00;;;;;27.77;41.08;100825.16;4916398;28;45542;-66
2022/07/25 10:13:14;;;;;;;;;3.00;2.00;;;;;27.80;41.52;100826.88;4916083;28;45843;-65
2022/07/25 10:15:41;;;;;;;;;5.00;4.67;;;;;27.78;41.06;100826.03;4916259;28;45333;-67
2022/07/25 10:18:07;;;;;;;;;3.33;3.33;;;;;27.61;40.81;100802.09;4929677;28;45532;-64
2022/07/25 10:20:33;;;;;;;;;3.67;3.33;;;;;27.57;41.04;100808.69;4916534;28;45545;-71
2022/07/25 10:22:58;;;;;;;;;2.00;2.00;;;;;27.54;41.22;100820.66;4912588;28;45451;-65
2022/07/25 10:25:24;;;;;;;;;2.00;2.00;;;;;27.50;41.77;100832.72;4916395;28;48112;-62
2022/07/25 10:27:59;;;;;;;;;2.00;2.00;;;;;27.46;41.67;100838.44;4916150;28;45360;-65
2022/07/25 10:30:27;;;;;;;;;3.00;3.00;;;;;27.19;41.62;100809.31;4916421;28;45648;-63
2022/07/25 10:33:05;;;;;;;;;2.67;2.33;;;;;27.28;42.01;100823.59;4916446;28;45439;-67
2022/07/25 10:35:31;;;;;;;;;2.00;2.00;;;;;27.36;41.66;100848.91;4915775;28;45490;-62
2022/07/25 10:37:58;;;;;;;;;3.00;3.00;;;;;27.32;42.13;100847.22;4916215;28;45428;-63
2022/07/25 10:40:45;;;;;;;;;4.00;3.00;;;;;27.24;42.15;100841.13;4916388;28;45309;-62
2022/07/25 10:43:12;;;;;;;;;3.67;3.67;;;;;27.26;42.17;100848.34;4916512;28;45275;-69
2022/07/25 10:45:47;;;;;;;;;2.00;2.00;;;;;27.17;42.28;100844.16;4915592;28;46162;-67
2022/07/25 10:48:39;;;;;;;;;3.00;3.00;;;;;27.21;42.27;100848.53;4915894;28;45556;-64
2022/07/25 10:51:12;;;;;;;;;2.00;2.00;;;;;27.36;42.21;100847.03;4915740;28;45518;-70
2022/07/25 10:53:44;;;;;;;;;5.33;5.33;;;;;27.43;42.19;100850.41;4916307;28;45442;-69
2022/07/25 10:56:18;;;;;;;;;4.00;3.33;;;;;27.50;42.01;100851.94;4915944;28;47608;-69
2022/07/25 10:58:50;;;;;;;;;7.33;7.33;;;;;27.43;42.17;100852.28;4916069;28;45724;-68
2022/07/25 11:01:35;;;;;;;;;3.33;2.00;;;;;27.28;42.23;100854.66;4916236;28;45341;-65
2022/07/25 11:04:04;;;;;;;;;3.00;3.00;;;;;27.17;42.89;100871.59;4916132;28;45605;-69
2022/07/25 11:06:29;;;;;;;;;3.67;3.67;;;;;27.08;43.13;100871.06;4915414;28;46444;-69
2022/07/25 11:08:56;;;;;;;;;3.00;3.00;;;;;26.99;43.25;100865.00;4915659;28;45376;-62
2022/07/25 11:11:35;;;;;;;;;2.67;2.67;;;;;27.05;43.35;100871.19;4916106;28;45538;-69
2022/07/25 11:14:00;;;;;;;;;2.00;2.00;;;;;27.04;43.49;100845.59;4916568;28;45281;-69
2022/07/25 11:16:26;;;;;;;;;3.00;3.00;;;;;27.22;43.43;100857.66;4917671;28;45952;-69
2022/07/25 11:18:55;;;;;;;;;4.00;3.00;;;;;27.30;42.94;100860.13;4927755;28;45438;-66
2022/07/25 11:21:21;;;;;;;;;3.00;3.00;;;;;27.31;42.41;100851.84;4916267;28;45596;-67